createdAt,value
2023-04-16T00:02:46.807Z,14.52
2023-04-16T00:05:34.342Z,11.85
2023-04-16T00:08:24.343Z,13.07
2023-04-16T00:11:11.946Z,14.25
2023-04-16T00:13:59.371Z,14.32
2023-04-16T00:16:47.040Z,14.82
2023-04-16T00:19:34.585Z,12.75
2023-04-16T00:22:22.197Z,11.77
2023-04-16T00:25:09.808Z,13.48
2023-04-16T00:27:57.271Z,15.23
2023-04-16T00:30:44.818Z,14.38
2023-04-16T00:33:32.282Z,12.90
2023-04-16T00:36:20.239Z,14.15
2023-04-16T00:39:07.933Z,15.15
2023-04-16T00:41:56.095Z,13.98
2023-04-16T00:44:43.521Z,13.98
2023-04-16T00:47:31.704Z,15.75
2023-04-16T00:50:19.320Z,14.25
2023-04-16T00:53:07.222Z,14.75
2023-04-16T00:55:56.150Z,15.68
2023-04-16T00:58:43.643Z,14.30
2023-04-16T01:01:31.157Z,16.05
2023-04-16T01:04:18.790Z,15.85
2023-04-16T01:07:06.506Z,15.20
2023-04-16T01:09:54.140Z,15.27
2023-04-16T01:12:41.650Z,15.73
2023-04-16T01:15:29.658Z,17.02
2023-04-16T01:18:18.308Z,17.23
2023-04-16T01:21:06.555Z,15.50
2023-04-16T01:23:54.043Z,17.58
2023-04-16T01:26:41.511Z,15.50
2023-04-16T01:29:28.968Z,16.10
2023-04-16T01:32:16.790Z,15.13
2023-04-16T01:35:04.483Z,15.35
2023-04-16T01:37:52.345Z,15.93
2023-04-16T01:40:39.942Z,16.52
2023-04-16T01:43:27.353Z,14.50
2023-04-16T01:46:31.019Z,18.05
2023-04-16T01:49:18.694Z,14.30
2023-04-16T01:52:08.362Z,16.70
2023-04-16T01:54:55.901Z,15.00
2023-04-16T01:57:43.337Z,16.48
2023-04-16T02:00:30.871Z,16.52
2023-04-16T02:03:19.075Z,15.38
2023-04-16T02:06:06.608Z,17.40
2023-04-16T02:08:54.165Z,16.70
2023-04-16T02:11:41.616Z,21.15
2023-04-16T02:14:29.750Z,18.58
2023-04-16T02:17:17.694Z,14.82
2023-04-16T02:20:07.957Z,17.80
2023-04-16T02:22:55.473Z,17.95
2023-04-16T02:25:47.396Z,16.45
2023-04-16T02:28:34.859Z,17.10
2023-04-16T02:31:22.772Z,19.90
2023-04-16T02:34:10.340Z,17.13
2023-04-16T02:36:58.401Z,19.48
2023-04-16T02:39:47.363Z,18.05
2023-04-16T02:42:35.482Z,17.73
2023-04-16T02:45:24.154Z,19.08
2023-04-16T02:48:11.652Z,22.23
2023-04-16T02:50:59.266Z,19.08
2023-04-16T02:53:46.722Z,18.98
2023-04-16T02:56:34.240Z,20.23
2023-04-16T02:59:21.664Z,18.98
2023-04-16T03:02:09.257Z,16.42
2023-04-16T03:04:56.753Z,16.92
2023-04-16T03:07:44.269Z,20.17
2023-04-16T03:10:32.357Z,19.15
2023-04-16T03:13:19.896Z,17.10
2023-04-16T03:16:07.603Z,20.35
2023-04-16T03:18:55.356Z,18.23
2023-04-16T03:21:42.828Z,20.48
2023-04-16T03:24:30.317Z,19.23
2023-04-16T03:27:17.776Z,17.85
2023-04-16T03:30:06.757Z,20.55
2023-04-16T03:32:54.268Z,19.52
2023-04-16T03:35:41.772Z,21.52
2023-04-16T03:38:29.584Z,19.80
2023-04-16T03:41:17.145Z,19.75
2023-04-16T03:44:05.110Z,20.75
2023-04-16T03:46:52.616Z,21.38
2023-04-16T03:49:40.195Z,19.77
2023-04-16T03:52:28.203Z,21.42
2023-04-16T03:55:15.971Z,20.70
2023-04-16T03:58:04.857Z,20.75
2023-04-16T04:00:54.960Z,20.17
2023-04-16T04:03:42.539Z,20.33
2023-04-16T04:06:30.083Z,21.40
2023-04-16T04:09:17.685Z,19.58
2023-04-16T04:12:05.149Z,20.80
2023-04-16T04:14:52.622Z,17.42
2023-04-16T04:17:40.248Z,20.10
2023-04-16T04:20:27.719Z,17.90
2023-04-16T04:23:15.421Z,17.13
2023-04-16T04:26:05.502Z,15.55
2023-04-16T04:28:52.991Z,16.92
2023-04-16T04:31:40.892Z,17.08
2023-04-16T04:34:28.380Z,16.02
2023-04-16T04:37:16.053Z,14.23
2023-04-16T04:40:03.638Z,15.07
2023-04-16T04:42:51.506Z,15.27
2023-04-16T04:45:38.971Z,16.52
2023-04-16T04:48:27.590Z,15.23
2023-04-16T04:51:15.035Z,13.88
2023-04-16T04:54:02.472Z,14.00
2023-04-16T04:56:50.986Z,15.68
2023-04-16T04:59:38.400Z,12.35
2023-04-16T05:02:26.067Z,13.02
2023-04-16T05:05:13.565Z,13.32
2023-04-16T05:08:01.352Z,13.20
2023-04-16T05:10:49.172Z,14.38
2023-04-16T05:13:36.880Z,16.10
2023-04-16T05:16:24.356Z,14.88
2023-04-16T05:19:12.203Z,14.48
2023-04-16T05:22:00.163Z,14.57
2023-04-16T05:24:47.696Z,15.50
2023-04-16T05:27:35.384Z,16.00
2023-04-16T05:30:22.859Z,16.05
2023-04-16T05:33:10.436Z,13.95
2023-04-16T05:35:57.867Z,16.50
2023-04-16T05:38:45.540Z,18.20
2023-04-16T05:41:33.341Z,16.88
2023-04-16T05:44:20.960Z,16.02
2023-04-16T05:47:09.404Z,15.40
2023-04-16T05:49:56.909Z,18.27
2023-04-16T05:52:44.349Z,14.68
2023-04-16T05:55:31.973Z,15.05
2023-04-16T05:58:19.843Z,14.90
2023-04-16T06:01:07.548Z,15.63
2023-04-16T06:03:57.337Z,15.15
2023-04-16T06:06:45.067Z,13.27
2023-04-16T06:09:32.583Z,14.20
2023-04-16T06:12:19.983Z,12.20
2023-04-16T06:15:08.114Z,14.57
2023-04-16T06:17:56.332Z,13.00
2023-04-16T06:20:43.925Z,14.40
2023-04-16T06:23:31.419Z,9.98
2023-04-16T06:26:18.896Z,13.85
2023-04-16T06:29:06.380Z,12.02
2023-04-16T06:31:54.153Z,11.80
2023-04-16T06:34:41.666Z,13.45
2023-04-16T06:37:29.258Z,11.50
2023-04-16T06:40:16.942Z,13.43
2023-04-16T06:43:04.495Z,11.00
2023-04-16T06:45:55.219Z,10.95
2023-04-16T06:48:42.781Z,12.00
2023-04-16T06:51:30.648Z,13.50
2023-04-16T06:54:19.704Z,13.18
2023-04-16T06:57:07.158Z,13.57
2023-04-16T06:59:54.655Z,15.02
2023-04-16T07:02:42.319Z,12.63
2023-04-16T07:05:29.957Z,13.25
2023-04-16T07:08:17.526Z,15.15
2023-04-16T07:11:05.506Z,13.57
2023-04-16T07:13:54.126Z,13.85
2023-04-16T07:16:41.650Z,14.90
2023-04-16T07:19:32.465Z,13.52
2023-04-16T07:22:20.640Z,16.92
2023-04-16T07:25:08.583Z,15.38
2023-04-16T07:27:56.050Z,14.30
2023-04-16T07:30:43.914Z,15.93
2023-04-16T07:33:31.342Z,18.23
2023-04-16T07:36:18.796Z,15.82
2023-04-16T07:39:06.321Z,16.08
2023-04-16T07:41:53.755Z,16.73
2023-04-16T07:44:41.248Z,16.48
2023-04-16T07:47:28.775Z,16.17
2023-04-16T07:50:16.415Z,15.90
2023-04-16T07:53:04.085Z,17.67
2023-04-16T07:55:51.569Z,17.50
2023-04-16T07:58:39.007Z,15.60
2023-04-16T08:01:27.000Z,15.45
2023-04-16T08:04:14.616Z,18.67
2023-04-16T08:07:02.193Z,19.55
2023-04-16T08:09:51.741Z,16.13
2023-04-16T08:12:39.310Z,16.15
2023-04-16T08:15:27.494Z,16.25
2023-04-16T08:18:16.072Z,14.85
2023-04-16T08:21:03.645Z,17.92
2023-04-16T08:23:51.442Z,17.33
2023-04-16T08:26:38.918Z,18.35
2023-04-16T08:29:26.575Z,17.17
2023-04-16T08:32:14.055Z,17.60
2023-04-16T08:35:01.757Z,16.85
2023-04-16T08:37:49.216Z,23.15
2023-04-16T08:40:40.082Z,17.52
2023-04-16T08:43:28.148Z,16.88
2023-04-16T08:46:17.751Z,19.60
2023-04-16T08:49:07.286Z,18.00
2023-04-16T08:51:55.844Z,19.35
2023-04-16T08:54:56.567Z,16.50
2023-04-16T08:57:51.361Z,18.45
2023-04-16T09:03:28.986Z,17.55
2023-04-16T09:06:17.532Z,18.77
2023-04-16T09:09:06.543Z,17.75
2023-04-16T09:11:54.672Z,18.52
2023-04-16T09:14:43.083Z,17.20
2023-04-16T09:17:31.025Z,15.05
2023-04-16T09:20:19.194Z,17.25
2023-04-16T09:23:06.560Z,17.80
2023-04-16T09:25:55.452Z,15.88
2023-04-16T09:28:45.345Z,14.43
2023-04-16T09:31:32.836Z,15.52
2023-04-16T09:34:20.952Z,16.75
2023-04-16T09:37:18.232Z,14.00
2023-04-16T09:40:06.660Z,16.75
2023-04-16T09:42:57.609Z,13.75
2023-04-16T09:45:50.049Z,13.70
2023-04-16T09:48:38.204Z,14.20
2023-04-16T09:51:26.846Z,15.65
2023-04-16T09:54:14.339Z,18.13
2023-04-16T09:57:01.814Z,15.50
2023-04-16T10:00:01.860Z,14.90
2023-04-16T10:02:50.707Z,13.50
2023-04-16T10:05:38.343Z,14.95
2023-04-16T10:08:25.881Z,15.93
2023-04-16T10:11:14.281Z,15.20
2023-04-16T10:14:01.702Z,14.98
2023-04-16T10:16:49.425Z,14.35
2023-04-16T10:19:37.686Z,15.40
2023-04-16T10:22:26.271Z,16.65
2023-04-16T10:25:14.070Z,17.23
2023-04-16T10:28:02.490Z,15.68
2023-04-16T10:30:54.993Z,15.13
2023-04-16T10:33:44.210Z,15.50
2023-04-16T10:36:36.031Z,18.27
2023-04-16T10:39:25.784Z,16.15
2023-04-16T10:42:13.731Z,16.38
2023-04-16T10:45:01.230Z,16.42
2023-04-16T10:47:48.874Z,18.50
2023-04-16T10:50:37.292Z,18.10
2023-04-16T10:53:26.959Z,15.85
2023-04-16T10:56:15.430Z,16.25
2023-04-16T10:59:10.892Z,17.08
2023-04-16T11:02:01.568Z,19.60
2023-04-16T11:04:50.194Z,16.95
2023-04-16T11:07:39.322Z,18.13
2023-04-16T11:10:27.309Z,17.77
2023-04-16T11:13:16.168Z,20.27
2023-04-16T11:16:04.871Z,18.92
2023-04-16T11:18:53.080Z,20.35
2023-04-16T11:21:41.365Z,19.48
2023-04-16T11:24:32.733Z,19.08
2023-04-16T11:27:20.266Z,19.63
2023-04-16T11:30:09.730Z,16.77
2023-04-16T11:32:57.426Z,18.05
2023-04-16T11:35:46.094Z,16.20
2023-04-16T11:38:36.367Z,16.60
2023-04-16T11:41:23.871Z,18.52
2023-04-16T11:44:20.614Z,20.70
2023-04-16T11:47:08.205Z,17.45
2023-04-16T11:49:55.845Z,19.58
2023-04-16T11:52:43.368Z,19.50
2023-04-16T11:55:31.263Z,17.58
2023-04-16T11:58:20.107Z,18.95
2023-04-16T12:01:10.127Z,17.65
2023-04-16T12:04:02.781Z,17.52
2023-04-16T12:07:09.876Z,18.30
2023-04-16T12:10:08.359Z,16.67
2023-04-16T12:13:17.086Z,17.98
2023-04-16T12:16:18.363Z,16.85
2023-04-16T12:19:06.249Z,19.67
2023-04-16T12:21:54.832Z,17.02
2023-04-16T12:24:42.368Z,18.27
2023-04-16T12:27:50.726Z,18.85
2023-04-16T12:30:51.401Z,18.83
2023-04-16T12:33:38.999Z,18.33
2023-04-16T12:36:26.508Z,19.08
2023-04-16T12:39:15.014Z,20.35
2023-04-16T12:42:03.788Z,18.98
2023-04-16T12:44:51.504Z,19.15
2023-04-16T12:47:38.986Z,20.15
2023-04-16T12:50:28.388Z,19.95
2023-04-16T12:53:15.974Z,19.27
2023-04-16T12:56:03.628Z,19.95
2023-04-16T12:58:52.194Z,19.98
2023-04-16T13:01:44.137Z,20.98
2023-04-16T13:04:42.106Z,23.90
2023-04-16T13:07:41.610Z,23.95
2023-04-16T13:10:53.350Z,22.27
2023-04-16T13:13:49.700Z,22.65
2023-04-16T13:16:42.165Z,23.75
2023-04-16T13:19:38.291Z,24.17
2023-04-16T13:22:35.974Z,24.70
2023-04-16T13:25:33.437Z,25.13
2023-04-16T13:28:29.670Z,24.10
2023-04-16T13:31:22.434Z,23.23
2023-04-16T13:34:10.804Z,23.90
2023-04-16T13:37:32.792Z,27.10
2023-04-16T13:40:21.545Z,23.88
2023-04-16T13:43:19.390Z,23.77
2023-04-16T13:46:07.564Z,23.55
2023-04-16T13:49:16.858Z,23.42
2023-04-16T13:52:04.953Z,23.55
2023-04-16T13:54:52.920Z,24.88
2023-04-16T13:58:01.822Z,22.10
2023-04-16T14:00:55.933Z,22.45
2023-04-16T14:06:53.432Z,16.33
2023-04-16T14:09:57.023Z,16.48
2023-04-16T14:12:51.004Z,14.80
2023-04-16T14:15:41.814Z,17.25
2023-04-16T14:18:36.338Z,14.57
2023-04-16T14:21:34.129Z,13.75
2023-04-16T14:27:47.043Z,12.70
2023-04-16T14:30:34.559Z,12.32
2023-04-16T14:33:52.795Z,10.77
2023-04-16T14:36:36.978Z,10.85
2023-04-16T14:42:29.861Z,11.10
2023-04-16T14:45:27.785Z,11.68
2023-04-16T14:48:21.799Z,10.07
2023-04-16T14:51:13.587Z,10.27
2023-04-16T14:54:01.414Z,10.43
2023-04-16T14:56:52.055Z,11.95
2023-04-16T14:59:39.526Z,10.18
2023-04-16T15:02:32.266Z,11.15
2023-04-16T15:09:32.637Z,12.95
2023-04-16T15:15:42.242Z,14.13
2023-04-16T15:18:29.954Z,13.48
2023-04-16T15:21:17.556Z,12.18
2023-04-16T15:24:05.691Z,14.10
2023-04-16T15:27:11.134Z,13.32
2023-04-16T15:29:59.635Z,14.60
2023-04-16T15:32:50.376Z,13.90
2023-04-16T15:35:41.108Z,13.30
2023-04-16T15:38:37.953Z,13.80
2023-04-16T15:41:50.146Z,13.18
2023-04-16T15:44:47.876Z,13.25
2023-04-16T15:47:38.894Z,12.50
2023-04-16T15:50:27.917Z,12.73
2023-04-16T15:53:18.606Z,12.43
2023-04-16T15:56:06.277Z,14.68
2023-04-16T15:58:53.777Z,12.18
2023-04-16T16:01:41.644Z,12.07
2023-04-16T16:04:31.431Z,12.43
2023-04-16T16:07:20.057Z,13.10
2023-04-16T16:10:08.806Z,13.23
2023-04-16T16:12:57.367Z,13.25
2023-04-16T16:15:45.401Z,16.10
2023-04-16T16:18:39.611Z,16.73
2023-04-16T16:24:19.386Z,15.23
2023-04-16T16:27:07.039Z,14.80
2023-04-16T16:29:56.899Z,16.10
2023-04-16T16:32:44.594Z,16.52
2023-04-16T16:35:32.196Z,17.73
2023-04-16T16:38:19.900Z,16.23
2023-04-16T16:41:14.300Z,16.17
2023-04-16T16:44:02.406Z,16.95
2023-04-16T16:46:50.620Z,16.92
2023-04-16T16:49:41.737Z,15.65
2023-04-16T16:52:29.506Z,17.85
2023-04-16T16:55:20.824Z,20.27
2023-04-16T16:58:10.714Z,16.17
2023-04-16T17:00:58.979Z,17.13
2023-04-16T17:03:50.492Z,15.77
2023-04-16T17:06:48.133Z,16.77
2023-04-16T17:09:39.999Z,14.73
2023-04-16T17:12:29.939Z,13.90
2023-04-16T17:15:21.931Z,14.75
2023-04-16T17:18:11.003Z,17.15
2023-04-16T17:20:58.628Z,13.80
2023-04-16T17:23:46.665Z,17.48
2023-04-16T17:26:43.913Z,14.13
2023-04-16T17:29:34.591Z,15.35
2023-04-16T17:32:29.665Z,13.93
2023-04-16T17:35:17.683Z,14.82
2023-04-16T17:41:09.856Z,15.35
2023-04-16T17:43:57.436Z,19.23
2023-04-16T17:46:47.605Z,16.00
2023-04-16T17:50:09.218Z,17.52
2023-04-16T17:53:51.435Z,14.27
2023-04-16T17:56:23.293Z,14.45
2023-04-16T18:02:26.959Z,16.27
2023-04-16T18:05:22.370Z,15.70
2023-04-16T18:08:13.146Z,16.23
2023-04-16T18:11:00.899Z,15.55
2023-04-16T18:13:48.693Z,15.95
2023-04-16T18:16:36.516Z,18.35
2023-04-16T18:19:24.366Z,22.23
2023-04-16T18:22:13.257Z,19.10
2023-04-16T18:25:02.395Z,19.75
2023-04-16T18:27:52.259Z,22.45
2023-04-16T18:30:40.682Z,20.95
2023-04-16T18:36:24.386Z,19.73
2023-04-16T18:39:13.672Z,17.80
2023-04-16T18:42:01.730Z,19.02
2023-04-16T18:44:55.985Z,20.67
2023-04-16T18:47:49.104Z,22.98
2023-04-16T18:50:39.589Z,19.50
2023-04-16T18:54:27.389Z,24.13
2023-04-16T18:57:18.130Z,21.60
2023-04-16T19:00:12.811Z,22.17
2023-04-16T19:03:09.636Z,22.20
2023-04-16T19:05:57.355Z,22.08
2023-04-16T19:08:44.999Z,24.40
2023-04-16T19:11:36.171Z,25.90
2023-04-16T19:14:26.623Z,24.60
2023-04-16T19:17:14.206Z,25.67
2023-04-16T19:20:01.831Z,25.60
2023-04-16T19:22:49.445Z,26.95
2023-04-16T19:25:36.924Z,24.55
2023-04-16T19:28:24.951Z,29.00
2023-04-16T19:31:12.841Z,27.52
2023-04-16T19:34:00.540Z,28.48
2023-04-16T19:36:48.170Z,29.48
2023-04-16T19:39:36.599Z,28.25
2023-04-16T19:42:24.245Z,27.00
2023-04-16T19:45:12.256Z,32.22
2023-04-16T19:47:59.812Z,29.88
2023-04-16T19:50:47.738Z,32.85
2023-04-16T19:53:35.933Z,30.17
2023-04-16T19:56:23.466Z,32.05
2023-04-16T19:59:11.289Z,31.77
2023-04-16T20:01:59.139Z,32.47
2023-04-16T20:04:48.521Z,35.53
2023-04-16T20:07:36.221Z,33.08
2023-04-16T20:10:24.852Z,35.28
2023-04-16T20:13:13.793Z,32.60
2023-04-16T20:16:01.631Z,34.22
2023-04-16T20:18:50.631Z,31.65
2023-04-16T20:21:40.610Z,37.28
2023-04-16T20:24:31.082Z,34.63
2023-04-16T20:27:21.661Z,30.35
2023-04-16T20:30:09.639Z,28.25
2023-04-16T20:32:57.225Z,30.63
2023-04-16T20:35:44.843Z,30.30
2023-04-16T20:38:37.231Z,31.00
2023-04-16T20:41:25.366Z,30.00
2023-04-16T20:44:18.208Z,33.47
2023-04-16T20:47:09.740Z,32.17
2023-04-16T20:49:58.165Z,35.35
2023-04-16T20:52:45.983Z,31.83
2023-04-16T20:55:44.760Z,35.17
2023-04-16T20:58:43.941Z,31.88
2023-04-16T21:01:42.908Z,29.85
2023-04-16T21:04:34.014Z,30.38
2023-04-16T21:07:21.544Z,32.15
2023-04-16T21:10:10.584Z,34.05
2023-04-16T21:12:58.087Z,32.03
2023-04-16T21:15:45.962Z,33.75
2023-04-16T21:18:34.797Z,30.60
2023-04-16T21:21:23.158Z,35.20
2023-04-16T21:24:10.600Z,40.25
2023-04-16T21:26:57.973Z,36.42
2023-04-16T21:29:45.532Z,31.60
2023-04-16T21:32:32.950Z,34.20
2023-04-16T21:35:20.492Z,30.25
2023-04-16T21:38:07.905Z,31.10
2023-04-16T21:40:55.718Z,31.02
2023-04-16T21:43:43.283Z,32.65
2023-04-16T21:46:30.856Z,35.00
2023-04-16T21:49:18.725Z,33.25
2023-04-16T21:52:06.174Z,30.58
2023-04-16T21:54:53.624Z,30.25
2023-04-16T21:57:41.118Z,30.65
2023-04-16T22:00:28.737Z,29.48
2023-04-16T22:03:17.376Z,34.55
2023-04-16T22:06:05.575Z,33.25
2023-04-16T22:08:53.413Z,35.55
2023-04-16T22:11:40.874Z,36.80
2023-04-16T22:14:31.897Z,37.97
2023-04-16T22:17:19.392Z,37.47
2023-04-16T22:20:14.213Z,35.70
2023-04-16T22:23:01.704Z,37.20
2023-04-16T22:25:49.168Z,42.92
2023-04-16T22:28:36.608Z,34.85
2023-04-16T22:31:24.089Z,37.40
2023-04-16T22:34:11.562Z,38.00
2023-04-16T22:36:59.027Z,39.47
2023-04-16T22:39:46.479Z,38.55
2023-04-16T22:42:34.896Z,42.58
2023-04-16T22:45:22.579Z,41.58
2023-04-16T22:48:10.081Z,43.78
2023-04-16T22:50:57.879Z,41.40
2023-04-16T22:53:45.466Z,39.63
2023-04-16T22:56:33.368Z,42.58
2023-04-16T22:59:20.904Z,48.22
2023-04-16T23:02:08.320Z,41.80
2023-04-16T23:04:55.995Z,41.38
2023-04-16T23:07:43.377Z,41.55
2023-04-16T23:10:30.806Z,46.85
2023-04-16T23:13:18.263Z,49.33
2023-04-16T23:16:06.174Z,45.65
2023-04-16T23:18:53.633Z,39.92
2023-04-16T23:21:41.845Z,47.35
2023-04-16T23:24:29.563Z,49.95
2023-04-16T23:27:17.069Z,51.33
2023-04-16T23:30:05.398Z,46.20
2023-04-16T23:32:52.894Z,49.75
2023-04-16T23:35:40.468Z,46.25
2023-04-16T23:38:28.432Z,51.58
2023-04-16T23:41:16.077Z,50.78
2023-04-16T23:44:03.908Z,51.80
2023-04-16T23:46:51.407Z,50.13
2023-04-16T23:49:38.988Z,54.53
2023-04-16T23:52:26.571Z,53.35
2023-04-16T23:55:14.007Z,54.00
2023-04-16T23:58:01.456Z,51.78
